createdAt,value
2023-03-21T00:00:54.283Z,30.00
2023-03-21T00:03:24.649Z,35.90
2023-03-21T00:05:54.026Z,37.40
2023-03-21T00:08:24.063Z,41.90
2023-03-21T00:11:00.530Z,38.30
2023-03-21T00:16:26.263Z,36.30
2023-03-21T00:18:57.628Z,37.30
2023-03-21T00:24:16.570Z,34.50
2023-03-21T00:26:45.189Z,40.70
2023-03-21T00:29:13.056Z,43.80
2023-03-21T00:31:41.250Z,41.10
2023-03-21T00:34:09.674Z,38.50
2023-03-21T00:36:38.011Z,41.90
2023-03-21T00:39:06.404Z,38.00
2023-03-21T00:41:42.508Z,38.00
2023-03-21T00:44:15.922Z,40.40
2023-03-21T00:46:54.570Z,41.00
2023-03-21T00:49:29.450Z,41.30
2023-03-21T00:51:59.513Z,42.00
2023-03-21T00:54:36.895Z,40.70
2023-03-21T00:57:05.547Z,46.50
2023-03-21T00:59:33.320Z,44.70
2023-03-21T01:02:01.338Z,44.20
2023-03-21T01:04:29.424Z,48.90
2023-03-21T01:06:57.477Z,43.80
2023-03-21T01:09:28.248Z,40.50
2023-03-21T01:11:56.221Z,39.90
2023-03-21T01:14:24.399Z,33.70
2023-03-21T01:16:53.573Z,33.40
2023-03-21T01:19:37.620Z,31.30
2023-03-21T01:22:12.784Z,30.80
2023-03-21T01:24:52.075Z,35.40
2023-03-21T01:27:22.148Z,31.70
2023-03-21T01:29:49.907Z,28.00
2023-03-21T01:32:21.050Z,30.60
2023-03-21T01:34:54.147Z,28.90
2023-03-21T01:37:22.877Z,28.60
2023-03-21T01:39:50.728Z,31.30
2023-03-21T01:42:18.849Z,31.00
2023-03-21T01:44:54.636Z,29.90
2023-03-21T01:47:22.860Z,31.70
2023-03-21T01:49:53.185Z,28.70
2023-03-21T01:52:40.037Z,29.50
2023-03-21T01:55:12.636Z,32.60
2023-03-21T01:58:01.995Z,32.40
2023-03-21T02:00:32.008Z,32.30
2023-03-21T02:03:11.457Z,33.40
2023-03-21T02:06:10.034Z,28.60
2023-03-21T02:08:39.932Z,26.70
2023-03-21T02:11:10.386Z,30.10
2023-03-21T02:13:38.268Z,31.50
2023-03-21T02:16:18.722Z,30.00
2023-03-21T02:19:04.006Z,25.60
2023-03-21T02:21:44.196Z,27.10
2023-03-21T02:24:33.693Z,24.80
2023-03-21T02:27:09.198Z,30.10
2023-03-21T02:29:48.440Z,27.70
2023-03-21T02:32:36.672Z,33.70
2023-03-21T02:35:23.635Z,33.30
2023-03-21T02:38:09.111Z,33.40
2023-03-21T02:40:51.628Z,33.60
2023-03-21T02:43:50.966Z,36.70
2023-03-21T02:46:24.372Z,34.90
2023-03-21T02:49:11.673Z,32.20
2023-03-21T02:51:41.255Z,36.30
2023-03-21T02:54:38.146Z,33.10
2023-03-21T02:57:07.052Z,33.80
2023-03-21T02:59:39.398Z,35.50
2023-03-21T03:02:13.620Z,35.10
2023-03-21T03:04:41.484Z,38.60
2023-03-21T03:07:27.289Z,38.80
2023-03-21T03:10:19.978Z,35.90
2023-03-21T03:13:06.181Z,37.80
2023-03-21T03:16:01.343Z,36.40
2023-03-21T03:18:56.628Z,36.20
2023-03-21T03:21:40.431Z,42.30
2023-03-21T03:24:20.462Z,37.90
2023-03-21T03:27:02.032Z,39.10
2023-03-21T03:29:35.977Z,38.70
2023-03-21T03:32:08.674Z,36.80
2023-03-21T03:34:39.732Z,39.10
2023-03-21T03:37:11.012Z,37.10
2023-03-21T03:39:46.713Z,40.40
2023-03-21T03:42:28.773Z,37.00
2023-03-21T03:44:57.565Z,40.60
2023-03-21T03:47:34.965Z,40.90
2023-03-21T03:50:28.997Z,37.50
2023-03-21T03:53:13.009Z,39.00
2023-03-21T03:55:46.407Z,38.00
2023-03-21T03:58:23.775Z,40.10
2023-03-21T04:00:54.243Z,37.40
2023-03-21T04:03:22.559Z,38.80
2023-03-21T04:05:50.475Z,38.30
2023-03-21T04:08:18.585Z,37.00
2023-03-21T04:10:46.349Z,39.00
2023-03-21T04:13:14.814Z,38.80
2023-03-21T04:15:44.450Z,36.40
2023-03-21T04:18:12.904Z,44.50
2023-03-21T04:20:40.646Z,46.80
2023-03-21T04:23:08.610Z,39.50
2023-03-21T04:25:40.394Z,43.60
2023-03-21T04:28:12.821Z,39.20
2023-03-21T04:30:46.966Z,40.50
2023-03-21T04:33:20.269Z,38.10
2023-03-21T04:35:48.408Z,41.20
2023-03-21T04:38:16.347Z,38.90
2023-03-21T04:40:44.073Z,40.40
2023-03-21T04:43:12.025Z,37.10
2023-03-21T04:45:41.138Z,47.50
2023-03-21T04:48:09.365Z,42.60
2023-03-21T04:50:37.448Z,43.90
2023-03-21T04:53:07.566Z,42.60
2023-03-21T04:55:37.054Z,42.60
2023-03-21T04:58:05.773Z,38.60
2023-03-21T05:00:37.512Z,46.90
2023-03-21T05:03:09.392Z,40.30
2023-03-21T05:05:38.317Z,44.10
2023-03-21T05:08:06.691Z,47.20
2023-03-21T05:10:34.567Z,39.50
2023-03-21T05:13:02.654Z,40.70
2023-03-21T05:15:30.906Z,38.80
2023-03-21T05:18:11.736Z,44.20
2023-03-21T05:20:43.873Z,41.20
2023-03-21T05:23:12.365Z,42.90
2023-03-21T05:25:40.499Z,43.20
2023-03-21T05:28:08.596Z,44.10
2023-03-21T05:30:36.414Z,50.40
2023-03-21T05:33:04.792Z,42.90
2023-03-21T05:35:32.529Z,48.10
2023-03-21T05:38:00.585Z,45.10
2023-03-21T05:40:28.355Z,43.10
2023-03-21T05:42:56.396Z,42.90
2023-03-21T05:45:24.198Z,43.10
2023-03-21T05:47:52.157Z,44.30
2023-03-21T05:50:20.258Z,45.70
2023-03-21T05:52:48.277Z,46.70
2023-03-21T05:55:16.160Z,41.10
2023-03-21T05:57:43.933Z,40.80
2023-03-21T06:00:12.317Z,41.80
2023-03-21T06:02:40.661Z,43.20
2023-03-21T06:05:09.080Z,42.00
2023-03-21T06:07:37.227Z,44.80
2023-03-21T06:10:05.867Z,44.90
2023-03-21T06:12:34.174Z,42.90
2023-03-21T06:15:02.736Z,47.50
2023-03-21T06:17:31.136Z,42.00
2023-03-21T06:20:01.205Z,40.50
2023-03-21T06:22:28.978Z,44.00
2023-03-21T06:24:57.274Z,37.40
2023-03-21T06:27:25.252Z,45.30
2023-03-21T06:29:53.148Z,47.50
2023-03-21T06:32:21.405Z,46.30
2023-03-21T06:34:49.457Z,44.90
2023-03-21T06:37:17.439Z,39.60
2023-03-21T06:39:47.072Z,45.20
2023-03-21T06:42:15.063Z,41.70
2023-03-21T06:44:46.413Z,47.60
2023-03-21T06:47:14.215Z,44.20
2023-03-21T06:49:44.138Z,51.20
2023-03-21T06:52:14.380Z,37.00
2023-03-21T06:54:42.541Z,41.80
2023-03-21T06:57:18.104Z,35.90
2023-03-21T06:59:46.523Z,42.90
2023-03-21T07:02:14.757Z,44.70
2023-03-21T07:04:43.691Z,44.50
2023-03-21T07:07:11.815Z,42.70
2023-03-21T07:09:41.157Z,42.50
2023-03-21T07:12:10.117Z,39.20
2023-03-21T07:14:38.231Z,42.00
2023-03-21T07:17:06.050Z,39.20
2023-03-21T07:19:33.841Z,37.10
2023-03-21T07:22:03.521Z,44.40
2023-03-21T07:24:31.418Z,37.30
2023-03-21T07:26:59.250Z,38.40
2023-03-21T07:29:27.349Z,38.10
2023-03-21T07:31:55.166Z,39.50
2023-03-21T07:34:23.024Z,30.90
2023-03-21T07:36:50.921Z,33.00
2023-03-21T07:39:20.562Z,32.30
2023-03-21T07:41:48.462Z,35.70
2023-03-21T07:44:16.380Z,35.30
2023-03-21T07:46:44.238Z,34.40
2023-03-21T07:49:12.230Z,34.30
2023-03-21T07:51:40.251Z,33.00
2023-03-21T07:54:08.259Z,34.70
2023-03-21T07:56:36.658Z,34.60
2023-03-21T07:59:05.576Z,34.10
2023-03-21T08:01:34.031Z,29.80
2023-03-21T08:04:01.977Z,36.20
2023-03-21T08:06:32.444Z,31.70
2023-03-21T08:09:00.690Z,34.00
2023-03-21T08:11:31.447Z,37.50
2023-03-21T08:14:00.284Z,33.80
2023-03-21T08:16:28.644Z,35.40
2023-03-21T08:18:56.637Z,36.60
2023-03-21T08:21:24.611Z,36.30
2023-03-21T08:23:53.475Z,36.40
2023-03-21T08:26:21.607Z,35.80
2023-03-21T08:28:49.443Z,33.90
2023-03-21T08:31:18.354Z,35.50
2023-03-21T08:33:47.527Z,37.30
2023-03-21T08:36:17.788Z,37.90
2023-03-21T08:38:48.462Z,35.10
2023-03-21T08:41:16.993Z,37.70
2023-03-21T08:43:45.195Z,36.70
2023-03-21T08:46:13.143Z,36.30
2023-03-21T08:48:41.272Z,39.20
2023-03-21T08:51:09.183Z,35.00
2023-03-21T08:53:36.982Z,33.20
2023-03-21T08:56:05.085Z,33.30
2023-03-21T08:58:33.145Z,28.50
2023-03-21T09:01:00.935Z,36.60
2023-03-21T09:03:30.339Z,35.30
2023-03-21T09:05:59.268Z,37.10
2023-03-21T09:08:27.170Z,33.80
2023-03-21T09:10:55.997Z,35.20
2023-03-21T09:13:24.923Z,32.70
2023-03-21T09:15:54.170Z,31.60
2023-03-21T09:18:23.034Z,30.90
2023-03-21T09:20:50.950Z,35.40
2023-03-21T09:23:19.689Z,32.80
2023-03-21T09:25:47.957Z,36.10
2023-03-21T09:28:16.605Z,35.60
2023-03-21T09:30:44.803Z,30.90
2023-03-21T09:33:19.197Z,35.00
2023-03-21T09:35:47.052Z,32.90
2023-03-21T09:38:15.300Z,34.30
2023-03-21T09:41:14.772Z,35.30
2023-03-21T09:43:56.182Z,30.40
2023-03-21T09:46:33.362Z,37.50
2023-03-21T09:49:10.645Z,33.40
2023-03-21T09:51:52.338Z,28.90
2023-03-21T09:54:33.480Z,38.40
2023-03-21T09:57:07.038Z,35.70
2023-03-21T09:59:38.121Z,37.30
2023-03-21T10:02:32.604Z,35.00
2023-03-21T10:05:00.786Z,33.90
2023-03-21T10:07:32.027Z,37.80
2023-03-21T10:10:00.770Z,37.70
2023-03-21T10:12:31.216Z,37.90
2023-03-21T10:15:01.146Z,35.50
2023-03-21T10:17:34.561Z,36.00
2023-03-21T10:20:15.987Z,36.70
2023-03-21T10:22:46.055Z,39.40
2023-03-21T10:25:17.712Z,43.20
2023-03-21T10:27:46.452Z,42.30
2023-03-21T10:30:22.548Z,41.00
2023-03-21T10:32:50.648Z,38.50
2023-03-21T10:35:19.370Z,36.20
2023-03-21T10:37:47.582Z,40.20
2023-03-21T10:40:17.756Z,39.20
2023-03-21T10:42:45.668Z,45.10
2023-03-21T10:45:20.159Z,43.20
2023-03-21T10:47:49.860Z,43.70
2023-03-21T10:50:20.719Z,38.20
2023-03-21T10:52:51.955Z,45.00
2023-03-21T10:55:33.496Z,44.10
2023-03-21T10:58:08.609Z,42.30
2023-03-21T11:00:41.752Z,41.10
2023-03-21T11:03:23.375Z,41.70
2023-03-21T11:06:23.220Z,42.80
2023-03-21T11:08:54.933Z,44.30
2023-03-21T11:11:30.437Z,43.80
2023-03-21T11:14:07.253Z,43.40
2023-03-21T11:16:43.723Z,40.90
2023-03-21T11:19:34.325Z,51.80
2023-03-21T11:22:07.514Z,44.70
2023-03-21T11:24:36.064Z,46.70
2023-03-21T11:27:08.133Z,46.70
2023-03-21T11:29:39.383Z,48.40
2023-03-21T11:32:21.007Z,48.00
2023-03-21T11:35:19.755Z,49.90
2023-03-21T11:37:53.279Z,44.90
2023-03-21T11:40:30.892Z,46.00
2023-03-21T11:43:09.333Z,42.30
2023-03-21T11:45:39.031Z,46.90
2023-03-21T11:48:14.083Z,51.30
2023-03-21T11:50:45.545Z,50.40
2023-03-21T11:53:28.784Z,51.60
2023-03-21T11:56:05.835Z,48.20
2023-03-21T11:58:40.092Z,42.30
2023-03-21T12:01:42.563Z,42.50
2023-03-21T12:04:41.484Z,37.50
2023-03-21T12:07:19.617Z,37.30
2023-03-21T12:09:59.832Z,41.40
2023-03-21T12:12:55.893Z,37.90
2023-03-21T12:15:34.454Z,41.00
2023-03-21T12:18:10.220Z,42.40
2023-03-21T12:20:42.399Z,39.50
2023-03-21T12:23:21.807Z,39.60
2023-03-21T12:26:08.676Z,38.80
2023-03-21T12:28:52.200Z,41.60
2023-03-21T12:31:42.965Z,42.20
2023-03-21T12:37:46.541Z,41.40
2023-03-21T12:40:51.746Z,46.50
2023-03-21T12:43:28.433Z,43.30
2023-03-21T12:46:00.698Z,42.70
2023-03-21T12:48:49.093Z,37.50
2023-03-21T12:51:21.505Z,45.70
2023-03-21T12:56:31.101Z,42.70
2023-03-21T12:59:12.657Z,41.60
2023-03-21T13:01:42.457Z,42.20
2023-03-21T13:04:33.987Z,46.30
2023-03-21T13:07:04.136Z,41.80
2023-03-21T13:09:41.270Z,42.20
2023-03-21T13:12:37.460Z,44.00
2023-03-21T13:15:24.108Z,40.10
2023-03-21T13:18:05.302Z,40.20
2023-03-21T13:20:46.779Z,39.90
2023-03-21T13:23:14.951Z,42.50
2023-03-21T13:25:46.286Z,39.90
2023-03-21T13:28:35.466Z,41.00
2023-03-21T13:31:22.007Z,35.50
2023-03-21T13:33:51.397Z,42.10
2023-03-21T13:36:25.799Z,40.10
2023-03-21T13:38:55.701Z,34.40
2023-03-21T13:41:38.985Z,40.20
2023-03-21T13:44:17.067Z,36.70
2023-03-21T13:46:54.895Z,37.10
2023-03-21T13:49:29.760Z,41.00
2023-03-21T13:52:00.117Z,40.40
2023-03-21T13:54:38.671Z,34.70
2023-03-21T13:57:06.874Z,37.50
2023-03-21T13:59:37.442Z,37.80
2023-03-21T14:02:29.133Z,38.30
2023-03-21T14:05:21.812Z,36.70
2023-03-21T14:07:54.727Z,41.50
2023-03-21T14:10:30.673Z,33.50
2023-03-21T14:12:59.322Z,34.20
2023-03-21T14:15:35.364Z,32.40
2023-03-21T14:18:15.994Z,31.10
2023-03-21T14:20:54.058Z,26.00
2023-03-21T14:23:22.706Z,35.00
2023-03-21T14:25:51.190Z,30.10
2023-03-21T14:28:28.551Z,31.90
2023-03-21T14:31:00.241Z,33.80
2023-03-21T14:33:41.702Z,30.40
2023-03-21T14:36:17.145Z,32.70
2023-03-21T14:38:55.000Z,37.50
2023-03-21T14:41:28.365Z,35.40
2023-03-21T14:44:09.423Z,33.40
2023-03-21T14:46:37.489Z,38.20
2023-03-21T14:49:33.624Z,34.80
2023-03-21T14:52:06.646Z,35.20
2023-03-21T14:54:34.867Z,35.30
2023-03-21T14:57:08.450Z,36.80
2023-03-21T14:59:39.092Z,37.10
2023-03-21T15:02:18.753Z,38.70
2023-03-21T15:04:51.689Z,34.20
2023-03-21T15:07:29.779Z,40.20
2023-03-21T15:10:23.453Z,37.20
2023-03-21T15:12:59.557Z,35.10
2023-03-21T15:15:29.215Z,34.40
2023-03-21T15:18:03.008Z,37.50
2023-03-21T15:20:35.436Z,34.00
2023-03-21T15:23:10.743Z,41.10
2023-03-21T15:25:39.654Z,38.00
2023-03-21T15:28:08.029Z,36.90
2023-03-21T15:30:36.112Z,35.40
2023-03-21T15:33:09.642Z,36.80
2023-03-21T15:35:46.102Z,35.20
2023-03-21T15:38:48.808Z,38.10
2023-03-21T15:41:19.795Z,39.70
2023-03-21T15:43:54.933Z,40.30
2023-03-21T15:46:44.080Z,37.70
2023-03-21T15:49:15.684Z,38.00
2023-03-21T15:51:51.760Z,35.20
2023-03-21T15:54:26.408Z,37.40
2023-03-21T15:56:56.540Z,37.90
2023-03-21T15:59:26.975Z,40.90
2023-03-21T16:01:54.969Z,39.40
2023-03-21T16:04:24.453Z,34.70
2023-03-21T16:07:04.136Z,39.00
2023-03-21T16:09:46.249Z,38.90
2023-03-21T16:12:18.671Z,36.70
2023-03-21T16:17:34.209Z,43.00
2023-03-21T16:20:02.110Z,39.30
2023-03-21T16:22:30.457Z,38.80
2023-03-21T16:24:58.418Z,37.50
2023-03-21T16:27:26.199Z,37.20
2023-03-21T16:29:54.214Z,38.50
2023-03-21T16:32:22.227Z,37.50
2023-03-21T16:34:53.848Z,37.50
2023-03-21T16:37:22.062Z,39.70
2023-03-21T16:39:50.160Z,40.50
2023-03-21T16:42:18.170Z,40.10
2023-03-21T16:44:46.306Z,39.70
2023-03-21T16:47:19.715Z,36.10
2023-03-21T16:49:47.608Z,39.20
2023-03-21T16:52:15.919Z,41.00
2023-03-21T16:54:43.899Z,40.00
2023-03-21T16:57:27.766Z,41.20
2023-03-21T16:59:56.352Z,42.80
2023-03-21T17:02:25.090Z,47.10
2023-03-21T17:04:53.102Z,42.10
2023-03-21T17:07:20.846Z,42.20
2023-03-21T17:09:48.987Z,51.00
2023-03-21T17:12:17.794Z,41.80
2023-03-21T17:14:45.980Z,42.70
2023-03-21T17:17:15.739Z,48.10
2023-03-21T17:19:43.976Z,48.50
2023-03-21T17:22:14.398Z,51.70
2023-03-21T17:24:42.572Z,46.20
2023-03-21T17:27:13.866Z,48.90
2023-03-21T17:29:41.729Z,45.70
2023-03-21T17:32:09.830Z,48.70
2023-03-21T17:34:37.970Z,52.70
2023-03-21T17:37:06.455Z,46.20
2023-03-21T17:39:34.675Z,49.70
2023-03-21T17:42:02.572Z,51.20
2023-03-21T17:44:30.564Z,50.50
2023-03-21T17:46:59.070Z,51.40
2023-03-21T17:49:28.049Z,55.00
2023-03-21T17:51:56.494Z,48.30
2023-03-21T17:54:24.435Z,48.60
2023-03-21T17:56:52.948Z,51.90
2023-03-21T17:59:21.028Z,45.70
2023-03-21T18:01:52.670Z,46.10
2023-03-21T18:04:22.511Z,49.50
2023-03-21T18:06:57.480Z,55.10
2023-03-21T18:09:28.684Z,50.70
2023-03-21T18:12:00.824Z,49.40
2023-03-21T18:14:34.241Z,52.20
2023-03-21T18:17:07.304Z,54.10
2023-03-21T18:19:43.200Z,58.40
2023-03-21T18:22:20.996Z,58.50
2023-03-21T18:24:56.536Z,54.70
2023-03-21T18:27:27.337Z,57.70
2023-03-21T18:30:32.857Z,59.40
2023-03-21T18:32:51.054Z,58.70
2023-03-21T18:35:28.108Z,67.00
2023-03-21T18:38:02.134Z,62.30
2023-03-21T18:40:32.794Z,67.70
2023-03-21T18:45:56.548Z,64.30
2023-03-21T18:48:26.660Z,68.10
2023-03-21T18:50:56.593Z,68.40
2023-03-21T18:53:27.550Z,64.50
2023-03-21T18:55:59.369Z,64.60
2023-03-21T18:58:29.965Z,66.20
2023-03-21T19:01:02.686Z,74.00
2023-03-21T19:03:37.024Z,67.60
2023-03-21T19:06:11.036Z,64.60
2023-03-21T19:08:43.600Z,65.60
2023-03-21T19:11:12.730Z,58.60
2023-03-21T19:13:44.230Z,63.10
2023-03-21T19:16:15.726Z,69.00
2023-03-21T19:18:54.923Z,66.00
2023-03-21T19:21:30.020Z,62.60
2023-03-21T19:26:57.595Z,68.20
2023-03-21T19:29:26.310Z,68.60
2023-03-21T19:31:55.740Z,67.50
2023-03-21T19:34:24.626Z,71.80
2023-03-21T19:36:54.152Z,69.90
2023-03-21T19:39:24.226Z,63.80
2023-03-21T19:41:58.859Z,66.40
2023-03-21T19:44:37.181Z,68.00
2023-03-21T19:47:07.776Z,73.30
2023-03-21T19:50:11.606Z,68.90
2023-03-21T19:52:26.615Z,66.60
2023-03-21T19:54:55.765Z,69.00
2023-03-21T19:57:25.040Z,67.30
2023-03-21T19:59:55.449Z,69.80
2023-03-21T20:02:35.892Z,68.60
2023-03-21T20:05:07.915Z,65.60
2023-03-21T20:07:37.585Z,61.30
2023-03-21T20:10:08.711Z,66.30
2023-03-21T20:12:39.502Z,63.10
2023-03-21T20:15:17.667Z,68.10
2023-03-21T20:17:49.794Z,61.30
2023-03-21T20:20:19.658Z,62.00
2023-03-21T20:23:06.127Z,59.80
2023-03-21T20:25:43.161Z,58.10
2023-03-21T20:28:22.597Z,59.10
2023-03-21T20:31:01.289Z,68.10
2023-03-21T20:33:31.862Z,63.80
2023-03-21T20:36:47.947Z,63.40
2023-03-21T20:38:56.065Z,60.30
2023-03-21T20:41:26.571Z,67.30
2023-03-21T20:46:52.029Z,70.30
2023-03-21T20:49:24.073Z,68.50
2023-03-21T20:52:51.791Z,64.00
2023-03-21T20:54:49.254Z,75.80
2023-03-21T20:57:23.287Z,68.90
2023-03-21T20:59:57.482Z,64.10
2023-03-21T21:02:30.186Z,61.80
2023-03-21T21:05:24.809Z,63.90
2023-03-21T21:07:55.590Z,65.50
2023-03-21T21:12:56.039Z,60.70
2023-03-21T21:15:24.867Z,62.00
2023-03-21T21:18:06.408Z,61.90
2023-03-21T21:20:37.902Z,59.70
2023-03-21T21:23:09.650Z,60.50
2023-03-21T21:25:39.948Z,63.10
2023-03-21T21:28:11.010Z,52.30
2023-03-21T21:30:42.237Z,53.10
2023-03-21T21:33:12.779Z,51.40
2023-03-21T21:35:50.460Z,49.90
2023-03-21T21:38:21.119Z,52.40
2023-03-21T21:40:52.560Z,44.70
2023-03-21T21:43:22.165Z,53.80
2023-03-21T21:45:51.297Z,51.40
2023-03-21T21:48:21.273Z,49.80
2023-03-21T21:50:55.652Z,54.60
2023-03-21T21:53:28.775Z,49.50
2023-03-21T21:55:57.560Z,50.60
2023-03-21T21:58:26.918Z,47.10
2023-03-21T22:00:59.866Z,52.50
2023-03-21T22:03:28.345Z,51.90
2023-03-21T22:06:03.158Z,53.60
2023-03-21T22:08:32.443Z,52.00
2023-03-21T22:11:01.747Z,52.50
2023-03-21T22:13:32.096Z,52.00
2023-03-21T22:16:02.261Z,53.10
2023-03-21T22:18:31.000Z,52.40
2023-03-21T22:21:03.125Z,50.40
2023-03-21T22:23:32.325Z,50.90
2023-03-21T22:26:03.147Z,53.40
2023-03-21T22:28:33.439Z,49.60
2023-03-21T22:31:13.079Z,49.60
2023-03-21T22:33:45.513Z,48.00
2023-03-21T22:36:15.442Z,49.00
2023-03-21T22:38:44.963Z,54.40
2023-03-21T22:41:15.280Z,52.60
2023-03-21T22:43:46.622Z,45.70
2023-03-21T22:46:14.897Z,49.00
2023-03-21T22:48:50.302Z,50.00
2023-03-21T22:51:19.902Z,48.50
2023-03-21T22:53:50.559Z,49.90
2023-03-21T22:56:20.039Z,51.00
2023-03-21T22:58:50.898Z,44.80
2023-03-21T23:01:21.238Z,61.00
2023-03-21T23:03:50.738Z,52.80
2023-03-21T23:06:20.557Z,47.80
2023-03-21T23:08:49.424Z,51.80
2023-03-21T23:11:18.905Z,53.10
2023-03-21T23:13:58.664Z,55.30
2023-03-21T23:16:38.655Z,48.50
2023-03-21T23:19:09.988Z,46.10
2023-03-21T23:21:41.067Z,44.90
2023-03-21T23:24:11.628Z,50.90
2023-03-21T23:26:44.030Z,49.30
2023-03-21T23:29:15.116Z,52.80
2023-03-21T23:31:46.876Z,49.40
2023-03-21T23:34:18.482Z,51.10
2023-03-21T23:36:48.513Z,48.90
2023-03-21T23:39:20.937Z,47.80
2023-03-21T23:44:24.111Z,45.00
2023-03-21T23:46:53.987Z,44.00
2023-03-21T23:49:24.573Z,52.10
2023-03-21T23:51:55.217Z,50.50
2023-03-21T23:54:27.622Z,51.90
2023-03-21T23:56:58.334Z,52.10
2023-03-21T23:59:32.480Z,54.60
